NSV weather

Noosa Airport
Queensland, Australia

Public forecast

Using degrees Celsius for public forecast. Weather courtesy of forecast.io.

METAR (pilot weather report)

Closest report is Brisbane International Airport, 57.8 nm (107.0 km) S. Retrieved 2019/04/24 21:30 UTC (0 seconds ago):

YBBN 242130Z 20005KT 9999 FEW030 BKN180 20/16 Q1020 FM0000 14010KT 9999 FEW030

TAF (pilot weather forecast)

Closest forecast is Brisbane International Airport, 57.8 nm (107.0 km) S. Retrieved 2019/04/24 18:00 UTC (3 hours ago):

TAF YBBN 241704Z 2418/2524 20005KT 9999 -SHRA SCT025 FM250000 11010KT 9999 SCT030 BKN090 FM250100 08010KT 9999 SCT035 BKN090 FM250800 12008KT 9999 SCT035 FM251200 20005KT 9999 FEW030